Powell, South Dakota
Current Conditions -  °F | °C
As of 9:53 PM on Sunday 21 Dec 2014 (Local Time) from KABR Reporting Station
Overcast Overcast  
Wind Chill: 28°   Ceiling: 700
Heat Index: 36°   Visibility: 7mi
Dew Point: 33°   Wind: 10mph
Humidity: 89%   Direction: 170°S
Pressure: 29.47"   Gusts: NA
Location:  45.4188°N, 99.0275°W
Report Text: KABR 220353Z AUTO 17009KT 7SM OVC007 02/01 A2947 RMK AO2 SLP992 T00220006
Loading
Personal Weather Stations






























Interactive Weather Map New forecast layout! Learn more

10-Day Weather Forecast

Advertisements
Track Severe Weather on mobile